Time;durP1;ratioP1;P1;durP2;ratioP2;P2;SDS_P1;SDS_P2;PMS_P1;PMS_P2;Temp;Humidity;BMP_temperature;BMP_pressure;BME280_temperature;BME280_humidity;BME280_pressure;Samples;Min_cycle;Max_cycle;Signal;HPM_P1;HPM_P2
2021/04/07 00:00:46;;;;;;;6.63;0.93;;;1.30;97.30;;;;;;10488244;28;20068;-76
2021/04/07 00:05:47;;;;;;;24.93;3.73;;;0.70;97.60;;;;;;10486286;28;20303;-75
2021/04/07 00:10:49;;;;;;;3.93;1.90;;;1.30;97.90;;;;;;10485012;28;20436;-75
2021/04/07 00:15:50;;;;;;;1.13;0.77;;;1.30;98.10;;;;;;10487341;28;20048;-76
2021/04/07 00:20:52;;;;;;;1.97;0.80;;;1.20;97.80;;;;;;10484870;28;20143;-76
2021/04/07 00:25:54;;;;;;;5.83;1.23;;;1.20;97.30;;;;;;10487879;28;20084;-75
2021/04/07 00:30:55;;;;;;;2.57;0.57;;;1.20;97.20;;;;;;10485815;28;20153;-75
2021/04/07 00:35:56;;;;;;;6.93;1.23;;;1.20;97.30;;;;;;10485640;28;20106;-74
2021/04/07 00:40:59;;;;;;;4.17;1.10;;;1.20;97.50;;;;;;10490150;28;20484;-74
2021/04/07 00:46:00;;;;;;;4.47;0.83;;;1.20;97.70;;;;;;10484702;28;20064;-74
2021/04/07 00:51:01;;;;;;;3.73;0.90;;;1.10;97.90;;;;;;10484864;28;20068;-73
2021/04/07 00:56:05;;;;;;;8.20;1.60;;;1.10;97.80;;;;;;10483441;28;20160;-74
2021/04/07 01:01:06;;;;;;;6.05;1.38;;;1.30;97.70;;;;;;10482613;28;20123;-74
2021/04/07 01:06:07;;;;;;;5.73;0.97;;;0.90;99.90;;;;;;10481435;28;20052;-72
2021/04/07 01:11:10;;;;;;;6.10;1.23;;;0.20;99.90;;;;;;10487225;28;20048;-73
2021/04/07 01:16:11;;;;;;;15.63;1.17;;;0.60;98.90;;;;;;10486443;28;20040;-74
2021/04/07 01:21:12;;;;;;;17.13;1.70;;;0.70;99.30;;;;;;10486485;28;20119;-73
2021/04/07 01:26:17;;;;;;;22.13;2.53;;;0.80;99.60;;;;;;10486138;28;20132;-74
2021/04/07 01:31:18;;;;;;;7.10;1.40;;;1.00;99.70;;;;;;10485935;28;20131;-73
2021/04/07 01:36:22;;;;;;;4.30;0.80;;;1.20;99.00;;;;;;10486162;28;20097;-73
2021/04/07 01:41:25;;;;;;;6.40;1.73;;;1.40;97.80;;;;;;10485249;28;20190;-74
2021/04/07 01:46:26;;;;;;;2.42;0.68;;;1.50;97.10;;;;;;10488407;28;20044;-74
2021/04/07 01:51:28;;;;;;;6.73;1.97;;;1.60;95.40;;;;;;10494187;28;20127;-73
2021/04/07 01:56:30;;;;;;;7.93;1.40;;;1.60;94.70;;;;;;10493956;28;20151;-74
2021/04/07 02:01:36;;;;;;;6.40;1.50;;;1.80;95.10;;;;;;10496280;28;20048;-74
2021/04/07 02:06:37;;;;;;;7.33;1.33;;;1.80;95.20;;;;;;10498867;28;20461;-74
2021/04/07 02:11:40;;;;;;;7.30;1.57;;;1.80;94.90;;;;;;10493812;28;20068;-75
2021/04/07 02:16:48;;;;;;;;;;;1.90;94.70;;;;;;10492515;28;20117;-74
2021/04/07 02:21:58;;;;;;;3.67;1.53;;;1.20;94.40;;;;;;10491235;28;20333;-74
2021/04/07 02:27:02;;;;;;;22.03;3.07;;;2.10;94.20;;;;;;10492607;28;20079;-75
2021/04/07 02:32:04;;;;;;;4.30;1.10;;;2.00;95.10;;;;;;10498160;28;20049;-76
2021/04/07 02:37:05;;;;;;;13.53;2.00;;;1.60;96.40;;;;;;10497725;28;20075;-75
2021/04/07 02:42:08;;;;;;;9.23;1.93;;;1.80;99.90;;;;;;10494639;28;20041;-75
2021/04/07 02:47:10;;;;;;;14.95;2.20;;;1.40;98.30;;;;;;10492384;28;20043;-76
2021/04/07 02:52:12;;;;;;;13.02;2.60;;;1.60;98.70;;;;;;10492886;28;20060;-77
2021/04/07 02:57:14;;;;;;;19.40;2.67;;;1.70;98.90;;;;;;10492694;28;20048;-76
2021/04/07 03:02:15;;;;;;;12.53;2.63;;;1.80;98.90;;;;;;10491223;28;20045;-79
2021/04/07 03:07:16;;;;;;;22.73;4.57;;;1.70;98.90;;;;;;10492877;28;20068;-78
2021/04/07 03:12:19;;;;;;;8.15;2.40;;;1.60;99.20;;;;;;10490283;28;20036;-80
2021/04/07 03:17:20;;;;;;;12.90;3.30;;;1.60;99.50;;;;;;10492799;28;20460;-83
2021/04/07 03:22:21;;;;;;;8.40;1.57;;;1.40;99.60;;;;;;10497915;28;20072;-78
2021/04/07 03:27:23;;;;;;;19.77;1.87;;;1.40;99.90;;;;;;10497309;28;20550;-79
2021/04/07 03:32:25;;;;;;;19.15;2.30;;;1.40;99.90;;;;;;10491173;28;20068;-80
2021/04/07 03:37:26;;;;;;;8.73;2.00;;;1.40;99.90;;;;;;10491967;28;20396;-78
2021/04/07 03:42:28;;;;;;;12.43;2.07;;;1.40;99.90;;;;;;10488470;28;20143;-79
2021/04/07 03:47:30;;;;;;;6.10;1.40;;;1.50;99.90;;;;;;10487171;28;20135;-79
2021/04/07 03:52:31;;;;;;;5.13;1.50;;;1.40;99.90;;;;;;10490211;28;20040;-78
2021/04/07 03:57:33;;;;;;;3.47;1.40;;;1.30;99.90;;;;;;10522404;28;20135;-76
2021/04/07 04:02:35;;;;;;;12.15;2.63;;;1.30;99.90;;;;;;10487502;28;20150;-75
2021/04/07 04:07:36;;;;;;;6.90;1.77;;;1.40;99.90;;;;;;10486132;28;20092;-77
2021/04/07 04:12:39;;;;;;;26.37;3.87;;;1.40;99.90;;;;;;10488429;28;20179;-78
2021/04/07 04:17:41;;;;;;;22.47;3.23;;;1.50;99.90;;;;;;10493559;28;20056;-78
2021/04/07 04:22:43;;;;;;;15.88;3.40;;;1.50;99.90;;;;;;10487625;28;20055;-78
2021/04/07 04:27:46;;;;;;;21.57;4.60;;;1.60;99.90;;;;;;10486521;28;20051;-78
2021/04/07 04:32:48;;;;;;;21.48;3.88;;;2.50;99.90;;;;;;10483657;28;20076;-76
2021/04/07 04:37:49;;;;;;;25.52;3.42;;;1.70;99.90;;;;;;10483101;28;20151;-76
2021/04/07 04:42:51;;;;;;;25.17;4.00;;;1.70;99.90;;;;;;10486105;28;20479;-75
2021/04/07 04:47:53;;;;;;;19.90;3.47;;;1.80;99.90;;;;;;10484481;28;20123;-76
2021/04/07 04:52:54;;;;;;;17.92;2.78;;;1.90;99.90;;;;;;10482929;28;20072;-76
2021/04/07 04:57:57;;;;;;;32.03;3.75;;;2.00;99.90;;;;;;10482715;28;20120;-73
2021/04/07 05:02:58;;;;;;;24.92;3.35;;;2.30;99.90;;;;;;10484155;28;20056;-76
2021/04/07 05:07:59;;;;;;;16.63;3.70;;;2.40;99.90;;;;;;10479550;28;21041;-77
2021/04/07 05:13:01;;;;;;;14.60;3.17;;;2.50;99.90;;;;;;10486835;28;20068;-81
2021/04/07 05:18:10;;;;;;;25.27;4.75;;;2.70;99.90;;;;;;10486684;28;20475;-81
2021/04/07 05:23:11;;;;;;;34.30;3.88;;;2.80;99.90;;;;;;10489204;28;20226;-76
2021/04/07 05:28:13;;;;;;;25.63;4.32;;;2.90;99.90;;;;;;10485202;28;20052;-81
2021/04/07 05:33:15;;;;;;;28.15;4.32;;;3.00;99.90;;;;;;10491973;28;20079;-83
2021/04/07 05:38:17;;;;;;;44.05;5.03;;;3.10;99.90;;;;;;10492847;28;20071;-80
2021/04/07 05:43:19;;;;;;;26.50;5.57;;;3.20;99.90;;;;;;10495268;28;20090;-76
2021/04/07 05:48:21;;;;;;;24.13;4.20;;;3.30;99.90;;;;;;10488539;28;20398;-73
2021/04/07 05:53:28;;;;;;;29.25;4.80;;;3.40;99.90;;;;;;10488229;28;20139;-81
2021/04/07 05:58:30;;;;;;;43.92;6.70;;;3.40;99.90;;;;;;10482636;28;20040;-76
2021/04/07 06:03:31;;;;;;;28.15;4.03;;;3.50;99.90;;;;;;10488100;28;20053;-83
2021/04/07 06:08:33;;;;;;;37.72;4.60;;;3.50;99.90;;;;;;10489685;28;20048;-75
2021/04/07 06:13:35;;;;;;;29.83;3.72;;;3.60;99.90;;;;;;10489659;28;20049;-77
2021/04/07 06:18:37;;;;;;;35.70;4.70;;;3.70;99.90;;;;;;10489130;28;20072;-74
2021/04/07 06:23:39;;;;;;;39.75;4.80;;;3.80;99.90;;;;;;10488602;28;20072;-71
2021/04/07 06:28:41;;;;;;;41.15;4.25;;;3.90;99.90;;;;;;10488471;28;20488;-72
2021/04/07 06:33:42;;;;;;;34.67;4.82;;;4.00;99.90;;;;;;10487329;28;20059;-72
2021/04/07 06:38:44;;;;;;;39.95;5.63;;;4.20;99.90;;;;;;10489600;28;20041;-74
2021/04/07 06:43:49;;;;;;;31.75;4.47;;;4.20;99.90;;;;;;10491143;28;20380;-76
2021/04/07 06:48:53;;;;;;;45.05;6.22;;;4.30;99.90;;;;;;10492194;28;20041;-69
2021/04/07 06:53:55;;;;;;;38.45;6.55;;;4.50;99.90;;;;;;10491389;28;20048;-73
2021/04/07 06:58:59;;;;;;;48.35;5.47;;;4.70;99.90;;;;;;10492317;28;20504;-80
2021/04/07 07:04:00;;;;;;;34.47;6.53;;;4.70;99.90;;;;;;10495713;28;20393;-74
2021/04/07 07:09:13;;;;;;;48.97;6.22;;;4.60;99.90;;;;;;10488810;28;20077;-74
2021/04/07 07:14:16;;;;;;;36.38;5.25;;;4.50;99.90;;;;;;10488610;28;20072;-72
2021/04/07 07:19:23;;;;;;;46.13;4.65;;;4.50;99.90;;;;;;10488113;28;20135;-71
2021/04/07 07:24:32;;;;;;;62.55;6.47;;;4.50;99.90;;;;;;10486954;28;20045;-74
2021/04/07 07:29:36;;;;;;;43.72;6.35;;;4.60;99.90;;;;;;10485601;28;20882;-72
2021/04/07 07:34:38;;;;;;;53.92;5.22;;;4.60;99.90;;;;;;10487349;28;20477;-74
2021/04/07 07:39:40;;;;;;;56.97;7.15;;;4.50;99.90;;;;;;10487296;28;20428;-76
2021/04/07 07:44:42;;;;;;;40.10;4.82;;;4.70;99.90;;;;;;10486555;28;20044;-75
2021/04/07 07:49:54;;;;;;;38.42;6.03;;;5.10;99.90;;;;;;10487424;28;20495;-72
2021/04/07 07:54:56;;;;;;;43.25;6.10;;;5.30;99.20;;;;;;10482820;28;20062;-80
2021/04/07 08:00:25;;;;;;;35.65;4.63;;;5.60;98.80;;;;;;10485257;28;20087;-73
2021/04/07 08:05:37;;;;;;;43.90;7.07;;;6.00;98.00;;;;;;10472898;28;20404;-72
2021/04/07 08:10:39;;;;;;;47.92;6.40;;;6.20;97.20;;;;;;10471586;28;20049;-75
2021/04/07 08:15:43;;;;;;;49.90;4.95;;;6.10;96.60;;;;;;10475208;28;20400;-76
2021/04/07 08:20:46;;;;;;;47.67;5.60;;;6.00;96.30;;;;;;10480713;28;20139;-78
2021/04/07 08:25:53;;;;;;;49.72;6.32;;;5.90;95.60;;;;;;10483493;28;20049;-75
2021/04/07 08:30:55;;;;;;;44.33;8.38;;;5.80;95.60;;;;;;10484132;28;20557;-76
2021/04/07 08:35:57;;;;;;;43.97;4.53;;;6.10;95.10;;;;;;10477120;28;20102;-75
2021/04/07 08:41:18;;;;;;;37.38;4.40;;;6.30;94.50;;;;;;10486139;28;20408;-75
2021/04/07 08:46:24;;;;;;;22.85;4.22;;;6.20;93.40;;;;;;10486852;28;20103;-74
2021/04/07 08:51:33;;;;;;;52.53;5.75;;;6.50;93.10;;;;;;10485550;28;20128;-69
2021/04/07 08:56:37;;;;;;;30.27;4.13;;;7.30;92.40;;;;;;10480982;28;20452;-79
2021/04/07 09:01:39;;;;;;;49.75;4.82;;;8.20;91.10;;;;;;10484684;28;20763;-82
2021/04/07 09:06:57;;;;;;;40.03;4.65;;;8.50;90.30;;;;;;10482658;28;20113;-75
2021/04/07 09:12:00;;;;;;;27.27;3.80;;;8.50;89.80;;;;;;10483346;28;20055;-69
2021/04/07 09:17:03;;;;;;;35.53;4.85;;;8.40;89.80;;;;;;10476280;28;20132;-73
2021/04/07 09:22:07;;;;;;;35.38;5.70;;;8.10;88.10;;;;;;10480042;28;20046;-72
2021/04/07 09:27:20;;;;;;;51.13;6.20;;;7.60;90.50;;;;;;10469743;28;20057;-74
2021/04/07 09:32:22;;;;;;;35.43;5.27;;;7.20;91.80;;;;;;10480506;28;20048;-67
2021/04/07 09:37:23;;;;;;;24.60;4.07;;;7.10;92.70;;;;;;10480195;28;20611;-66
2021/04/07 09:42:25;;;;;;;41.42;5.10;;;7.10;92.60;;;;;;10485291;28;20044;-73
2021/04/07 09:47:29;;;;;;;25.65;4.07;;;7.00;92.80;;;;;;10487145;28;20123;-72
2021/04/07 09:52:38;;;;;;;23.58;4.13;;;7.30;92.50;;;;;;10483892;28;20583;-68
2021/04/07 09:57:40;;;;;;;34.75;3.83;;;7.50;92.00;;;;;;10482734;28;20079;-69
2021/04/07 10:02:42;;;;;;;46.70;4.22;;;7.00;93.10;;;;;;10480065;28;20098;-70
2021/04/07 10:07:44;;;;;;;45.85;4.63;;;8.70;93.80;;;;;;10479539;28;20359;-67
2021/04/07 10:12:45;;;;;;;29.00;4.03;;;6.90;93.60;;;;;;10476766;28;20185;-69
2021/04/07 10:17:47;;;;;;;31.70;4.15;;;5.80;93.80;;;;;;10478988;28;20482;-70
2021/04/07 10:22:50;;;;;;;34.47;5.20;;;5.30;95.10;;;;;;10478621;28;20139;-70
2021/04/07 10:27:51;;;;;;;30.75;3.17;;;5.60;96.00;;;;;;10476016;28;20078;-70
2021/04/07 10:32:55;;;;;;;49.25;5.50;;;6.50;95.70;;;;;;10471665;28;20046;-69
2021/04/07 10:37:58;;;;;;;28.83;4.22;;;6.70;94.70;;;;;;10475670;28;20587;-74
2021/04/07 10:43:10;;;;;;;32.13;4.97;;;7.40;94.40;;;;;;10477863;28;20078;-69
2021/04/07 10:48:12;;;;;;;35.55;2.88;;;8.30;93.50;;;;;;10480720;28;20045;-67
2021/04/07 10:53:14;;;;;;;26.13;3.70;;;7.00;92.20;;;;;;10480068;28;20068;-68
2021/04/07 10:58:25;;;;;;;25.52;2.40;;;6.10;94.50;;;;;;10478886;28;20139;-67
2021/04/07 11:03:31;;;;;;;29.85;3.80;;;6.10;95.30;;;;;;10479431;28;20036;-66
2021/04/07 11:08:38;;;;;;;22.52;3.75;;;5.90;96.00;;;;;;10480237;28;20056;-66
2021/04/07 11:13:39;;;;;;;26.73;3.13;;;6.40;95.80;;;;;;10479790;28;20068;-67
2021/04/07 11:18:42;;;;;;;31.02;3.97;;;7.10;94.20;;;;;;10479149;28;20040;-65
2021/04/07 11:23:43;;;;;;;25.93;3.63;;;8.40;92.70;;;;;;10479179;28;20491;-67
2021/04/07 11:28:44;;;;;;;30.45;4.63;;;9.00;90.70;;;;;;10478403;28;20099;-66
2021/04/07 11:33:47;;;;;;;21.55;3.63;;;10.10;89.30;;;;;;10473138;28;20132;-65
2021/04/07 11:38:50;;;;;;;15.02;3.08;;;10.30;84.10;;;;;;10475196;28;20048;-65
2021/04/07 11:49:12;;;;;;;18.63;4.15;;;10.70;78.70;;;;;;10474332;28;20060;-64
2021/04/07 11:54:15;;;;;;;21.95;3.55;;;11.20;77.80;;;;;;10473101;28;20536;-64
2021/04/07 11:59:16;;;;;;;;;;;11.90;72.50;;;;;;10474271;28;20496;-64
2021/04/07 12:04:19;;;;;;;24.85;3.50;;;12.00;68.10;;;;;;10474798;28;19920;-62
2021/04/07 12:09:21;;;;;;;20.70;3.20;;;11.70;67.20;;;;;;10475276;28;20186;-62
2021/04/07 12:14:22;;;;;;;27.35;4.32;;;11.00;64.90;;;;;;10474247;28;20093;-62
2021/04/07 12:19:26;;;;;;;22.42;3.40;;;11.30;63.30;;;;;;10473916;28;20139;-62
2021/04/07 12:24:29;;;;;;;13.25;2.33;;;11.10;63.90;;;;;;10474263;28;20056;-64
2021/04/07 12:29:30;;;;;;;26.25;3.40;;;11.60;60.30;;;;;;10473999;28;20041;-62
2021/04/07 12:34:32;;;;;;;14.13;3.03;;;11.80;60.50;;;;;;10472337;28;20071;-61
2021/04/07 12:39:35;;;;;;;14.87;3.70;;;11.90;58.90;;;;;;10472679;28;20131;-61
2021/04/07 12:44:36;;;;;;;12.35;2.28;;;12.00;57.40;;;;;;10470602;28;20447;-63
2021/04/07 12:49:39;;;;;;;11.98;2.50;;;11.90;56.80;;;;;;10472078;28;20590;-61
2021/04/07 12:54:40;;;;;;;15.37;2.73;;;12.10;55.10;;;;;;10472983;28;20621;-63
2021/04/07 12:59:41;;;;;;;22.65;2.67;;;11.50;57.90;;;;;;10473011;28;20097;-63
2021/04/07 13:04:43;;;;;;;14.95;2.88;;;11.50;54.50;;;;;;10473273;28;20156;-63
2021/04/07 13:09:49;;;;;;;17.47;2.83;;;11.40;56.50;;;;;;10472023;28;20040;-62
2021/04/07 13:14:50;;;;;;;20.33;3.45;;;11.70;54.60;;;;;;10474014;28;20047;-61
2021/04/07 13:19:54;;;;;;;10.90;1.90;;;11.60;51.70;;;;;;10472469;28;20043;-66
2021/04/07 13:24:56;;;;;;;16.73;2.67;;;11.20;52.50;;;;;;10471820;28;20036;-62
2021/04/07 13:29:57;;;;;;;13.75;2.28;;;10.60;57.00;;;;;;10472946;28;20131;-65
2021/04/07 13:35:05;;;;;;;19.42;2.97;;;10.50;56.40;;;;;;10474016;28;20153;-62
2021/04/07 13:40:10;;;;;;;19.77;3.00;;;10.40;56.70;;;;;;10475096;28;20051;-63
2021/04/07 13:45:12;;;;;;;20.40;2.95;;;10.30;57.30;;;;;;10481454;28;20044;-64
2021/04/07 13:50:15;;;;;;;13.87;2.57;;;10.00;57.40;;;;;;10479558;28;20044;-66
2021/04/07 13:55:18;;;;;;;15.10;2.75;;;9.80;58.60;;;;;;10481137;28;20139;-64
2021/04/07 14:00:20;;;;;;;19.30;2.60;;;9.70;58.30;;;;;;10482330;28;20543;-63
2021/04/07 14:05:28;;;;;;;17.80;2.83;;;9.80;58.40;;;;;;10462394;28;20167;-63
2021/04/07 14:10:53;;;;;;;11.63;1.95;;;10.00;56.70;;;;;;10460206;28;20074;-62
2021/04/07 14:16:33;;;;;;;15.57;2.15;;;9.70;55.50;;;;;;10484055;28;20060;-62
2021/04/07 14:22:05;;;;;;;13.75;2.55;;;9.60;56.30;;;;;;10460630;28;20131;-61
2021/04/07 14:27:28;;;;;;;21.30;2.15;;;9.70;55.90;;;;;;10465423;28;20057;-62
2021/04/07 14:32:53;;;;;;;18.52;2.38;;;10.40;54.50;;;;;;10450636;28;20143;-60
2021/04/07 14:38:04;;;;;;;17.10;2.45;;;11.30;51.40;;;;;;10455100;28;21005;-63
2021/04/07 14:43:16;;;;;;;25.15;3.25;;;11.10;57.80;;;;;;10458514;28;20152;-61
2021/04/07 14:54:15;;;;;;;19.35;2.78;;;9.50;67.50;;;;;;10471430;28;20988;-64
2021/04/07 15:05:18;;;;;;;21.20;3.25;;;8.30;70.60;;;;;;10475265;28;20044;-62
2021/04/07 15:10:25;;;;;;;9.77;2.17;;;7.20;76.60;;;;;;10473862;28;20106;-64
2021/04/07 15:15:26;;;;;;;18.13;1.88;;;5.70;83.50;;;;;;10478318;28;20068;-65
2021/04/07 15:20:28;;;;;;;20.42;2.53;;;4.90;90.00;;;;;;10478068;28;20040;-67
2021/04/07 15:25:31;;;;;;;13.68;2.15;;;4.20;92.40;;;;;;10474771;28;20050;-65
2021/04/07 15:30:34;;;;;;;21.90;3.40;;;4.60;93.30;;;;;;10472874;28;20073;-65
2021/04/07 15:35:36;;;;;;;24.83;4.10;;;4.80;93.50;;;;;;10469726;28;20470;-64
2021/04/07 15:40:38;;;;;;;25.92;2.90;;;5.00;93.40;;;;;;10476195;28;20047;-65
2021/04/07 15:45:39;;;;;;;14.70;1.92;;;4.90;92.40;;;;;;10478144;28;20499;-67
2021/04/07 15:50:40;;;;;;;12.30;2.00;;;4.90;91.60;;;;;;10475133;28;20048;-67
2021/04/07 15:55:44;;;;;;;25.10;2.97;;;4.80;91.40;;;;;;10475096;28;20435;-64
2021/04/07 16:00:45;;;;;;;18.23;2.40;;;5.70;91.20;;;;;;10474824;28;20052;-64
2021/04/07 16:05:49;;;;;;;12.38;2.55;;;5.30;90.10;;;;;;10473459;28;20049;-65
2021/04/07 16:10:53;;;;;;;21.73;2.10;;;5.50;90.00;;;;;;10470313;28;20060;-63
2021/04/07 16:15:54;;;;;;;13.20;1.70;;;5.50;89.40;;;;;;10474952;28;20131;-64
2021/04/07 16:20:56;;;;;;;10.98;2.50;;;5.30;89.80;;;;;;10474444;28;20036;-66
2021/04/07 16:25:58;;;;;;;30.35;2.55;;;5.20;90.20;;;;;;10473100;28;20048;-66
2021/04/07 16:30:59;;;;;;;14.43;2.20;;;5.10;91.10;;;;;;10473414;28;20045;-66
2021/04/07 16:36:03;;;;;;;23.98;2.83;;;5.00;92.60;;;;;;10473980;28;20056;-64
2021/04/07 16:41:05;;;;;;;12.07;2.13;;;5.00;93.30;;;;;;10472753;28;20048;-65
2021/04/07 16:46:06;;;;;;;16.92;2.15;;;4.90;93.80;;;;;;10474685;28;20631;-65
2021/04/07 16:51:08;;;;;;;23.55;2.40;;;4.90;94.30;;;;;;10474570;28;20050;-65
2021/04/07 16:56:10;;;;;;;14.77;3.25;;;5.00;94.90;;;;;;10473989;28;20045;-65
2021/04/07 17:01:11;;;;;;;26.90;3.20;;;5.30;96.50;;;;;;10471308;28;20603;-65
2021/04/07 17:06:13;;;;;;;21.10;3.10;;;5.30;94.90;;;;;;10473307;28;20037;-67
2021/04/07 17:11:16;;;;;;;14.02;1.63;;;5.60;94.00;;;;;;10472617;28;20161;-67
2021/04/07 17:16:17;;;;;;;12.32;3.00;;;5.70;92.20;;;;;;10473179;28;20490;-65
2021/04/07 17:21:18;;;;;;;14.25;1.45;;;5.50;90.60;;;;;;10474844;28;20131;-66
2021/04/07 17:26:20;;;;;;;14.07;2.65;;;5.30;88.50;;;;;;10471350;28;20040;-64
2021/04/07 17:31:21;;;;;;;15.38;2.58;;;5.00;88.10;;;;;;10470423;28;20079;-65
2021/04/07 17:36:23;;;;;;;14.90;2.35;;;4.70;89.60;;;;;;10468100;28;20036;-64
2021/04/07 17:41:25;;;;;;;24.00;1.85;;;4.60;90.40;;;;;;10473066;28;20049;-67
2021/04/07 17:46:27;;;;;;;6.47;1.23;;;4.30;91.70;;;;;;10474569;28;20512;-66
2021/04/07 17:51:28;;;;;;;10.80;1.42;;;3.90;92.90;;;;;;10472269;28;20123;-65
2021/04/07 17:56:30;;;;;;;6.50;1.38;;;3.70;94.10;;;;;;10471956;28;20095;-66
2021/04/07 18:01:33;;;;;;;32.33;4.20;;;3.40;95.00;;;;;;10474037;28;20135;-67
2021/04/07 18:06:36;;;;;;;11.70;1.88;;;3.30;96.10;;;;;;10473174;28;20569;-66
2021/04/07 18:11:50;;;;;;;11.93;2.13;;;3.10;96.50;;;;;;10463856;28;20080;-66
2021/04/07 18:17:24;;;;;;;13.40;2.65;;;2.90;96.70;;;;;;10467497;28;20476;-66
2021/04/07 18:22:53;;;;;;;26.50;3.13;;;2.80;97.00;;;;;;10458876;28;20045;-66
2021/04/07 18:28:25;;;;;;;13.15;1.90;;;2.80;97.60;;;;;;10457787;28;20788;-68
2021/04/07 18:33:52;;;;;;;17.48;2.33;;;2.60;97.20;;;;;;10475254;28;20795;-70
2021/04/07 18:39:00;;;;;;;15.43;2.03;;;2.50;98.00;;;;;;10460793;28;20768;-69
2021/04/07 18:44:05;;;;;;;21.25;2.45;;;2.50;98.40;;;;;;10458026;28;20056;-71
2021/04/07 18:49:06;;;;;;;17.37;2.57;;;1.10;98.30;;;;;;10479782;28;20444;-69
2021/04/07 18:54:08;;;;;;;22.20;2.45;;;2.20;98.80;;;;;;10473945;28;20059;-69
2021/04/07 18:59:10;;;;;;;19.85;1.88;;;2.30;99.40;;;;;;10478534;28;20136;-69
2021/04/07 19:04:12;;;;;;;26.92;2.50;;;2.30;99.30;;;;;;10478820;28;20479;-68
2021/04/07 19:09:13;;;;;;;21.42;4.63;;;2.30;99.40;;;;;;10477803;28;20043;-67
2021/04/07 19:14:16;;;;;;;21.80;3.40;;;2.30;99.50;;;;;;10477576;28;20040;-69
2021/04/07 19:19:18;;;;;;;8.88;2.03;;;2.50;99.60;;;;;;10477160;28;20047;-69
2021/04/07 19:24:19;;;;;;;14.25;2.08;;;2.60;99.50;;;;;;10476863;28;20144;-70
2021/04/07 19:29:21;;;;;;;22.30;2.55;;;2.80;99.50;;;;;;10476171;28;20092;-68
2021/04/07 19:34:23;;;;;;;23.35;3.00;;;2.80;99.40;;;;;;10476665;28;20044;-69
2021/04/07 19:39:24;;;;;;;21.17;2.30;;;2.70;99.90;;;;;;10474368;28;20048;-69
2021/04/07 19:44:26;;;;;;;38.88;4.20;;;2.60;99.00;;;;;;10476117;28;20131;-68
2021/04/07 19:49:30;;;;;;;19.63;3.03;;;2.70;99.00;;;;;;10475479;28;20399;-69
2021/04/07 19:54:31;;;;;;;;;;;2.80;98.70;;;;;;10476684;28;20124;-69
2021/04/07 19:59:33;;;;;;;32.55;4.55;;;2.50;98.20;;;;;;10474971;28;19930;-70
2021/04/07 20:04:34;;;;;;;16.23;2.40;;;2.80;97.80;;;;;;10476180;28;20149;-70
2021/04/07 20:09:36;;;;;;;16.35;2.75;;;2.90;97.70;;;;;;10470706;28;20148;-69
2021/04/07 20:14:38;;;;;;;8.00;1.45;;;3.10;97.60;;;;;;10473534;28;20068;-69
2021/04/07 20:19:39;;;;;;;5.50;1.98;;;2.90;97.30;;;;;;10474169;28;20196;-69
2021/04/07 20:24:40;;;;;;;14.60;1.52;;;2.70;97.20;;;;;;10475222;28;20083;-68
2021/04/07 20:29:43;;;;;;;12.25;2.15;;;2.50;97.10;;;;;;10470433;28;20046;-68
2021/04/07 20:34:44;;;;;;;16.08;2.22;;;2.60;97.20;;;;;;10471416;28;20080;-69
2021/04/07 20:39:46;;;;;;;5.82;1.27;;;2.70;97.60;;;;;;10470701;28;20152;-69
2021/04/07 20:44:48;;;;;;;22.27;2.80;;;2.90;97.60;;;;;;10477067;28;20186;-68
2021/04/07 20:49:49;;;;;;;12.57;1.92;;;2.90;97.30;;;;;;10476125;28;20174;-70
2021/04/07 20:54:51;;;;;;;17.42;2.97;;;2.80;97.60;;;;;;10476971;28;20153;-71
2021/04/07 20:59:53;;;;;;;14.57;2.60;;;2.80;97.90;;;;;;10476175;28;20068;-70
2021/04/07 21:04:54;;;;;;;20.42;2.72;;;2.80;98.10;;;;;;10476963;28;20127;-71
2021/04/07 21:10:00;;;;;;;13.10;1.63;;;2.80;98.20;;;;;;10474539;28;20121;-70
2021/04/07 21:15:03;;;;;;;19.15;2.20;;;2.80;98.20;;;;;;10475331;28;20427;-70
2021/04/07 21:20:05;;;;;;;30.85;3.60;;;2.80;98.20;;;;;;10475853;28;20044;-70
2021/04/07 21:25:07;;;;;;;13.50;1.75;;;2.90;98.10;;;;;;10475969;28;20048;-70
2021/04/07 21:30:11;;;;;;;25.27;2.05;;;2.90;97.70;;;;;;10476949;28;20066;-70
2021/04/07 21:35:12;;;;;;;;;;;3.00;97.40;;;;;;10475107;28;20072;-69
2021/04/07 21:40:14;;;;;;;8.00;2.35;;;3.10;97.30;;;;;;10475347;28;20011;-69
2021/04/07 21:45:17;;;;;;;14.63;2.00;;;3.10;97.10;;;;;;10452665;28;20101;-69
2021/04/07 21:50:18;;;;;;;15.90;2.20;;;3.30;97.10;;;;;;10473579;28;20068;-70
2021/04/07 21:55:20;;;;;;;15.15;1.95;;;3.10;97.10;;;;;;10474246;28;20041;-69
2021/04/07 22:00:24;;;;;;;11.90;1.70;;;3.20;97.10;;;;;;10474598;28;20049;-68
2021/04/07 22:05:26;;;;;;;13.18;1.67;;;3.20;97.10;;;;;;10482907;28;20083;-69
2021/04/07 22:10:29;;;;;;;16.08;2.15;;;3.30;97.10;;;;;;10478063;28;20052;-68
2021/04/07 22:15:36;;;;;;;19.92;1.80;;;3.40;97.10;;;;;;10480464;28;20070;-69
2021/04/07 22:20:37;;;;;;;14.63;2.15;;;3.50;96.70;;;;;;10481493;28;20139;-69
2021/04/07 22:25:40;;;;;;;14.13;1.60;;;3.40;96.20;;;;;;10481737;28;20044;-67
2021/04/07 22:36:02;;;;;;;10.13;1.75;;;2.10;96.80;;;;;;10478631;28;20053;-68
2021/04/07 22:41:03;;;;;;;15.63;2.00;;;1.90;97.20;;;;;;10479353;28;20131;-68
2021/04/07 22:46:05;;;;;;;16.33;2.75;;;2.00;96.80;;;;;;10479737;28;20032;-68
2021/04/07 22:51:07;;;;;;;12.27;1.70;;;2.00;96.70;;;;;;10479020;28;20840;-67
2021/04/07 22:56:09;;;;;;;26.23;3.80;;;2.10;96.80;;;;;;10479104;28;20044;-68
2021/04/07 23:01:12;;;;;;;15.80;1.70;;;2.10;96.80;;;;;;10480319;28;20583;-68
2021/04/07 23:06:13;;;;;;;20.88;2.92;;;3.10;97.30;;;;;;10478859;28;20045;-67
2021/04/07 23:11:15;;;;;;;11.75;2.05;;;2.30;97.20;;;;;;10476796;28;20075;-68
2021/04/07 23:16:17;;;;;;;24.20;1.80;;;2.40;97.30;;;;;;10478610;28;20109;-68
2021/04/07 23:21:18;;;;;;;12.25;2.55;;;2.60;97.10;;;;;;10476116;28;20040;-68
2021/04/07 23:26:20;;;;;;;17.63;1.63;;;2.70;96.70;;;;;;10479462;28;20045;-68
2021/04/07 23:31:22;;;;;;;10.70;1.60;;;2.80;96.30;;;;;;10478126;28;20151;-68
2021/04/07 23:36:23;;;;;;;11.10;1.60;;;2.90;96.20;;;;;;10475107;28;20040;-68
2021/04/07 23:41:24;;;;;;;8.10;1.45;;;3.00;96.10;;;;;;10476857;28;20070;-69
2021/04/07 23:46:27;;;;;;;7.18;1.35;;;2.90;95.40;;;;;;10473936;28;20044;-68
2021/04/07 23:51:28;;;;;;;9.80;1.43;;;2.40;95.20;;;;;;10474050;28;20787;-68
2021/04/07 23:56:30;;;;;;;4.25;1.23;;;2.20;95.60;;;;;;10474560;28;20048;-68
